SBJU/JDO METAR and TAF weather

Enter ICAO airport designator
Station Type Date Time Source
SBJU METAR 2020/07/10 21:00 UTC NOAA

SBJU 102100Z 16009KT 9999 SCT021 29/19 Q1017


Station Type Date Time Source
SBJU Decoded METAR 2020/07/10 21:00 UTC NOAA

Station name not available
Jul 10, 2020 - 05:00 PM EDT / 2020.07.10 2100 UTC
Wind: from the SSE (160 degrees) at 10 MPH (9 KT):0
Visibility: greater than 7 mile(s):0
Sky conditions: partly cloudy
Temperature: 84 F (29 C)
Dew Point: 66 F (19 C)
Relative Humidity: 54%
Pressure (altimeter): 30.03 in. Hg (1017 hPa)
ob: SBJU 102100Z 16009KT 9999 SCT021 29/19 Q1017
cycle: 21

Station Type Date Time Source
SBJU TAF 2011/11/01 00:05 UTC NOAA

TAF SBJU 012200Z 0200/0212 00000KT 9999 SCT020 TX28/0200Z TN24/0207Z
BECMG 0210/0212 06005KT
RMK PCE

Example: see airport list